sensor_id;sensor_type;location;lat;lon;timestamp;P1;durP1;ratioP1;P2;durP2;ratioP2
60700;SDS011;46541;49.894;10.886;2023-05-20T00:01:50;6.22;;;3.60;;
60700;SDS011;46541;49.894;10.886;2023-05-20T00:04:17;6.68;;;3.67;;
60700;SDS011;46541;49.894;10.886;2023-05-20T00:06:44;8.52;;;3.28;;
60700;SDS011;46541;49.894;10.886;2023-05-20T00:09:10;5.60;;;3.58;;
60700;SDS011;46541;49.894;10.886;2023-05-20T00:11:37;5.25;;;3.58;;
60700;SDS011;46541;49.894;10.886;2023-05-20T00:14:04;4.50;;;3.10;;
60700;SDS011;46541;49.894;10.886;2023-05-20T00:16:31;5.90;;;3.78;;
60700;SDS011;46541;49.894;10.886;2023-05-20T00:18:58;8.07;;;3.13;;
60700;SDS011;46541;49.894;10.886;2023-05-20T00:21:25;5.03;;;4.10;;
60700;SDS011;46541;49.894;10.886;2023-05-20T00:23:52;9.13;;;3.95;;
60700;SDS011;46541;49.894;10.886;2023-05-20T00:26:19;5.10;;;3.60;;
60700;SDS011;46541;49.894;10.886;2023-05-20T00:28:46;4.53;;;3.45;;
60700;SDS011;46541;49.894;10.886;2023-05-20T00:31:13;4.38;;;3.20;;
60700;SDS011;46541;49.894;10.886;2023-05-20T00:33:40;5.07;;;4.05;;
60700;SDS011;46541;49.894;10.886;2023-05-20T00:36:07;6.22;;;4.03;;
60700;SDS011;46541;49.894;10.886;2023-05-20T00:38:34;7.07;;;3.72;;
60700;SDS011;46541;49.894;10.886;2023-05-20T00:41:01;6.03;;;4.13;;
60700;SDS011;46541;49.894;10.886;2023-05-20T00:43:27;6.78;;;4.15;;
60700;SDS011;46541;49.894;10.886;2023-05-20T00:45:54;6.50;;;4.38;;
60700;SDS011;46541;49.894;10.886;2023-05-20T00:48:21;6.32;;;3.80;;
60700;SDS011;46541;49.894;10.886;2023-05-20T00:50:48;6.20;;;3.63;;
60700;SDS011;46541;49.894;10.886;2023-05-20T00:53:16;6.80;;;4.25;;
60700;SDS011;46541;49.894;10.886;2023-05-20T00:55:43;3.88;;;3.22;;
60700;SDS011;46541;49.894;10.886;2023-05-20T00:58:10;8.32;;;4.13;;
60700;SDS011;46541;49.894;10.886;2023-05-20T01:00:37;5.90;;;4.75;;
60700;SDS011;46541;49.894;10.886;2023-05-20T01:03:04;7.80;;;4.50;;
60700;SDS011;46541;49.894;10.886;2023-05-20T01:05:31;8.82;;;4.22;;
60700;SDS011;46541;49.894;10.886;2023-05-20T01:07:58;6.35;;;3.70;;
60700;SDS011;46541;49.894;10.886;2023-05-20T01:10:25;6.25;;;3.90;;
60700;SDS011;46541;49.894;10.886;2023-05-20T01:12:56;6.82;;;4.03;;
60700;SDS011;46541;49.894;10.886;2023-05-20T01:15:26;7.80;;;4.13;;
60700;SDS011;46541;49.894;10.886;2023-05-20T01:17:55;8.77;;;4.10;;
60700;SDS011;46541;49.894;10.886;2023-05-20T01:20:27;6.28;;;4.25;;
60700;SDS011;46541;49.894;10.886;2023-05-20T01:22:58;5.95;;;4.18;;
60700;SDS011;46541;49.894;10.886;2023-05-20T01:25:25;7.28;;;4.15;;
60700;SDS011;46541;49.894;10.886;2023-05-20T01:27:53;6.65;;;4.57;;
60700;SDS011;46541;49.894;10.886;2023-05-20T01:30:23;6.55;;;4.57;;
60700;SDS011;46541;49.894;10.886;2023-05-20T01:32:57;8.95;;;4.65;;
60700;SDS011;46541;49.894;10.886;2023-05-20T01:35:27;6.40;;;5.18;;
60700;SDS011;46541;49.894;10.886;2023-05-20T01:37:54;8.55;;;4.75;;
60700;SDS011;46541;49.894;10.886;2023-05-20T01:40:22;5.28;;;4.43;;
60700;SDS011;46541;49.894;10.886;2023-05-20T01:42:51;6.03;;;4.63;;
60700;SDS011;46541;49.894;10.886;2023-05-20T01:45:20;6.55;;;4.38;;
60700;SDS011;46541;49.894;10.886;2023-05-20T01:47:49;7.03;;;4.47;;
60700;SDS011;46541;49.894;10.886;2023-05-20T01:50:16;7.18;;;4.78;;
60700;SDS011;46541;49.894;10.886;2023-05-20T01:52:43;6.45;;;4.55;;
60700;SDS011;46541;49.894;10.886;2023-05-20T01:55:09;6.05;;;4.70;;
60700;SDS011;46541;49.894;10.886;2023-05-20T01:57:36;6.03;;;4.40;;
60700;SDS011;46541;49.894;10.886;2023-05-20T02:00:03;6.55;;;4.95;;
60700;SDS011;46541;49.894;10.886;2023-05-20T02:02:31;10.77;;;5.30;;
60700;SDS011;46541;49.894;10.886;2023-05-20T02:04:59;8.63;;;4.30;;
60700;SDS011;46541;49.894;10.886;2023-05-20T02:07:27;7.65;;;4.75;;
60700;SDS011;46541;49.894;10.886;2023-05-20T02:09:53;7.80;;;4.78;;
60700;SDS011;46541;49.894;10.886;2023-05-20T02:12:20;8.23;;;4.45;;
60700;SDS011;46541;49.894;10.886;2023-05-20T02:14:47;8.13;;;5.63;;
60700;SDS011;46541;49.894;10.886;2023-05-20T02:17:16;7.30;;;4.65;;
60700;SDS011;46541;49.894;10.886;2023-05-20T02:19:43;7.25;;;4.90;;
60700;SDS011;46541;49.894;10.886;2023-05-20T02:22:10;5.13;;;4.32;;
60700;SDS011;46541;49.894;10.886;2023-05-20T02:24:37;8.68;;;5.57;;
60700;SDS011;46541;49.894;10.886;2023-05-20T02:27:04;7.15;;;4.75;;
60700;SDS011;46541;49.894;10.886;2023-05-20T02:29:32;6.30;;;4.97;;
60700;SDS011;46541;49.894;10.886;2023-05-20T02:31:58;7.40;;;5.20;;
60700;SDS011;46541;49.894;10.886;2023-05-20T02:34:26;10.20;;;5.07;;
60700;SDS011;46541;49.894;10.886;2023-05-20T02:36:53;7.70;;;5.47;;
60700;SDS011;46541;49.894;10.886;2023-05-20T02:39:20;6.05;;;4.53;;
60700;SDS011;46541;49.894;10.886;2023-05-20T02:41:46;7.68;;;5.43;;
60700;SDS011;46541;49.894;10.886;2023-05-20T02:44:13;6.22;;;4.97;;
60700;SDS011;46541;49.894;10.886;2023-05-20T02:46:40;7.75;;;4.82;;
60700;SDS011;46541;49.894;10.886;2023-05-20T02:49:07;6.60;;;4.20;;
60700;SDS011;46541;49.894;10.886;2023-05-20T02:51:34;7.57;;;4.38;;
60700;SDS011;46541;49.894;10.886;2023-05-20T02:54:01;7.15;;;4.15;;
60700;SDS011;46541;49.894;10.886;2023-05-20T02:56:28;7.13;;;4.97;;
60700;SDS011;46541;49.894;10.886;2023-05-20T02:58:55;6.15;;;4.60;;
60700;SDS011;46541;49.894;10.886;2023-05-20T03:01:22;7.35;;;4.50;;
60700;SDS011;46541;49.894;10.886;2023-05-20T03:03:49;6.30;;;4.75;;
60700;SDS011;46541;49.894;10.886;2023-05-20T03:06:16;9.50;;;4.88;;
60700;SDS011;46541;49.894;10.886;2023-05-20T03:08:42;7.38;;;4.40;;
60700;SDS011;46541;49.894;10.886;2023-05-20T03:11:09;7.88;;;5.13;;
60700;SDS011;46541;49.894;10.886;2023-05-20T03:13:36;6.07;;;4.95;;
60700;SDS011;46541;49.894;10.886;2023-05-20T03:16:03;6.53;;;4.95;;
60700;SDS011;46541;49.894;10.886;2023-05-20T03:18:30;10.88;;;5.43;;
60700;SDS011;46541;49.894;10.886;2023-05-20T03:20:58;7.20;;;5.10;;
60700;SDS011;46541;49.894;10.886;2023-05-20T03:23:25;8.60;;;6.28;;
60700;SDS011;46541;49.894;10.886;2023-05-20T03:25:52;7.20;;;5.45;;
60700;SDS011;46541;49.894;10.886;2023-05-20T03:28:19;7.32;;;4.85;;
60700;SDS011;46541;49.894;10.886;2023-05-20T03:30:46;9.50;;;4.95;;
60700;SDS011;46541;49.894;10.886;2023-05-20T03:33:12;7.18;;;5.10;;
60700;SDS011;46541;49.894;10.886;2023-05-20T03:35:40;6.82;;;5.63;;
60700;SDS011;46541;49.894;10.886;2023-05-20T03:38:07;9.02;;;6.53;;
60700;SDS011;46541;49.894;10.886;2023-05-20T03:40:34;8.50;;;5.25;;
60700;SDS011;46541;49.894;10.886;2023-05-20T03:43:01;6.45;;;5.25;;
60700;SDS011;46541;49.894;10.886;2023-05-20T03:45:27;5.97;;;4.78;;
60700;SDS011;46541;49.894;10.886;2023-05-20T03:47:54;10.48;;;5.45;;
60700;SDS011;46541;49.894;10.886;2023-05-20T03:50:21;8.80;;;5.28;;
60700;SDS011;46541;49.894;10.886;2023-05-20T03:52:48;9.10;;;5.95;;
60700;SDS011;46541;49.894;10.886;2023-05-20T03:55:14;9.23;;;5.80;;
60700;SDS011;46541;49.894;10.886;2023-05-20T03:57:42;7.60;;;5.93;;
60700;SDS011;46541;49.894;10.886;2023-05-20T04:00:08;8.27;;;6.55;;
60700;SDS011;46541;49.894;10.886;2023-05-20T04:02:37;8.52;;;5.75;;
60700;SDS011;46541;49.894;10.886;2023-05-20T04:05:04;8.73;;;5.88;;
60700;SDS011;46541;49.894;10.886;2023-05-20T04:07:33;8.25;;;6.20;;
60700;SDS011;46541;49.894;10.886;2023-05-20T04:10:02;8.88;;;5.80;;
60700;SDS011;46541;49.894;10.886;2023-05-20T04:12:29;9.63;;;5.88;;
60700;SDS011;46541;49.894;10.886;2023-05-20T04:14:57;8.85;;;6.35;;
60700;SDS011;46541;49.894;10.886;2023-05-20T04:17:29;9.40;;;6.22;;
60700;SDS011;46541;49.894;10.886;2023-05-20T04:19:56;7.95;;;6.35;;
60700;SDS011;46541;49.894;10.886;2023-05-20T04:22:25;9.23;;;6.22;;
60700;SDS011;46541;49.894;10.886;2023-05-20T04:24:52;11.95;;;6.93;;
60700;SDS011;46541;49.894;10.886;2023-05-20T04:27:19;8.20;;;7.03;;
60700;SDS011;46541;49.894;10.886;2023-05-20T04:29:46;9.40;;;6.70;;
60700;SDS011;46541;49.894;10.886;2023-05-20T04:32:15;11.43;;;8.73;;
60700;SDS011;46541;49.894;10.886;2023-05-20T04:34:44;10.20;;;7.15;;
60700;SDS011;46541;49.894;10.886;2023-05-20T04:37:12;13.05;;;8.60;;
60700;SDS011;46541;49.894;10.886;2023-05-20T04:39:39;9.30;;;7.38;;
60700;SDS011;46541;49.894;10.886;2023-05-20T04:42:05;13.55;;;8.55;;
60700;SDS011;46541;49.894;10.886;2023-05-20T04:44:32;14.45;;;10.38;;
60700;SDS011;46541;49.894;10.886;2023-05-20T04:46:59;12.93;;;9.82;;
60700;SDS011;46541;49.894;10.886;2023-05-20T04:49:26;15.40;;;8.77;;
60700;SDS011;46541;49.894;10.886;2023-05-20T04:51:54;14.82;;;8.90;;
60700;SDS011;46541;49.894;10.886;2023-05-20T04:54:21;11.13;;;8.40;;
60700;SDS011;46541;49.894;10.886;2023-05-20T04:56:48;13.68;;;11.13;;
60700;SDS011;46541;49.894;10.886;2023-05-20T04:59:16;11.75;;;8.45;;
60700;SDS011;46541;49.894;10.886;2023-05-20T05:01:43;13.75;;;7.97;;
60700;SDS011;46541;49.894;10.886;2023-05-20T05:04:10;10.15;;;8.20;;
60700;SDS011;46541;49.894;10.886;2023-05-20T05:06:36;12.98;;;8.48;;
60700;SDS011;46541;49.894;10.886;2023-05-20T05:09:03;12.43;;;8.95;;
60700;SDS011;46541;49.894;10.886;2023-05-20T05:11:30;11.52;;;8.02;;
60700;SDS011;46541;49.894;10.886;2023-05-20T05:13:57;10.63;;;8.15;;
60700;SDS011;46541;49.894;10.886;2023-05-20T05:16:23;11.45;;;8.27;;
60700;SDS011;46541;49.894;10.886;2023-05-20T05:18:50;11.52;;;8.77;;
60700;SDS011;46541;49.894;10.886;2023-05-20T05:21:17;10.07;;;8.25;;
60700;SDS011;46541;49.894;10.886;2023-05-20T05:23:44;11.32;;;8.13;;
60700;SDS011;46541;49.894;10.886;2023-05-20T05:26:11;13.27;;;8.63;;
60700;SDS011;46541;49.894;10.886;2023-05-20T05:28:39;9.45;;;8.07;;
60700;SDS011;46541;49.894;10.886;2023-05-20T05:31:07;13.07;;;8.23;;
60700;SDS011;46541;49.894;10.886;2023-05-20T05:33:34;13.70;;;8.93;;
60700;SDS011;46541;49.894;10.886;2023-05-20T05:36:01;13.52;;;8.60;;
60700;SDS011;46541;49.894;10.886;2023-05-20T05:38:28;12.88;;;9.20;;
60700;SDS011;46541;49.894;10.886;2023-05-20T05:40:54;12.20;;;9.13;;
60700;SDS011;46541;49.894;10.886;2023-05-20T05:43:21;13.20;;;9.35;;
60700;SDS011;46541;49.894;10.886;2023-05-20T05:45:48;10.38;;;8.43;;
60700;SDS011;46541;49.894;10.886;2023-05-20T05:48:15;11.75;;;9.32;;
60700;SDS011;46541;49.894;10.886;2023-05-20T05:50:45;15.65;;;11.65;;
60700;SDS011;46541;49.894;10.886;2023-05-20T05:53:12;14.00;;;9.60;;
60700;SDS011;46541;49.894;10.886;2023-05-20T05:55:39;13.20;;;9.73;;
60700;SDS011;46541;49.894;10.886;2023-05-20T05:58:05;14.13;;;9.93;;
60700;SDS011;46541;49.894;10.886;2023-05-20T06:00:32;14.40;;;10.13;;
60700;SDS011;46541;49.894;10.886;2023-05-20T06:02:59;10.70;;;8.85;;
60700;SDS011;46541;49.894;10.886;2023-05-20T06:05:26;15.18;;;8.25;;
60700;SDS011;46541;49.894;10.886;2023-05-20T06:07:55;12.27;;;8.93;;
60700;SDS011;46541;49.894;10.886;2023-05-20T06:10:22;12.70;;;9.18;;
60700;SDS011;46541;49.894;10.886;2023-05-20T06:12:48;13.07;;;9.35;;
60700;SDS011;46541;49.894;10.886;2023-05-20T06:15:15;11.02;;;8.77;;
60700;SDS011;46541;49.894;10.886;2023-05-20T06:17:42;10.23;;;8.40;;
60700;SDS011;46541;49.894;10.886;2023-05-20T06:20:09;13.73;;;8.65;;
60700;SDS011;46541;49.894;10.886;2023-05-20T06:22:36;11.68;;;8.30;;
60700;SDS011;46541;49.894;10.886;2023-05-20T06:25:03;11.15;;;8.07;;
60700;SDS011;46541;49.894;10.886;2023-05-20T06:27:31;12.23;;;8.80;;
60700;SDS011;46541;49.894;10.886;2023-05-20T06:29:58;10.38;;;8.10;;
60700;SDS011;46541;49.894;10.886;2023-05-20T06:32:25;10.95;;;7.78;;
60700;SDS011;46541;49.894;10.886;2023-05-20T06:34:52;9.45;;;7.93;;
60700;SDS011;46541;49.894;10.886;2023-05-20T06:37:19;11.77;;;8.05;;
60700;SDS011;46541;49.894;10.886;2023-05-20T06:39:49;9.57;;;7.78;;
60700;SDS011;46541;49.894;10.886;2023-05-20T06:42:19;9.95;;;7.82;;
60700;SDS011;46541;49.894;10.886;2023-05-20T06:44:46;9.88;;;6.60;;
60700;SDS011;46541;49.894;10.886;2023-05-20T06:47:13;9.85;;;6.95;;
60700;SDS011;46541;49.894;10.886;2023-05-20T06:49:45;9.00;;;7.53;;
60700;SDS011;46541;49.894;10.886;2023-05-20T06:52:13;9.40;;;7.18;;
60700;SDS011;46541;49.894;10.886;2023-05-20T06:54:40;8.15;;;6.85;;
60700;SDS011;46541;49.894;10.886;2023-05-20T06:57:07;10.90;;;7.75;;
60700;SDS011;46541;49.894;10.886;2023-05-20T06:59:34;9.45;;;7.38;;
60700;SDS011;46541;49.894;10.886;2023-05-20T07:02:02;9.60;;;7.60;;
60700;SDS011;46541;49.894;10.886;2023-05-20T07:04:29;15.65;;;8.40;;
60700;SDS011;46541;49.894;10.886;2023-05-20T07:06:56;9.45;;;7.25;;
60700;SDS011;46541;49.894;10.886;2023-05-20T07:09:23;9.77;;;7.88;;
60700;SDS011;46541;49.894;10.886;2023-05-20T07:11:49;8.20;;;6.80;;
60700;SDS011;46541;49.894;10.886;2023-05-20T07:14:16;8.88;;;6.97;;
60700;SDS011;46541;49.894;10.886;2023-05-20T07:16:43;7.72;;;6.80;;
60700;SDS011;46541;49.894;10.886;2023-05-20T07:19:10;11.07;;;7.05;;
60700;SDS011;46541;49.894;10.886;2023-05-20T07:21:37;10.82;;;7.45;;
60700;SDS011;46541;49.894;10.886;2023-05-20T07:24:04;10.02;;;7.47;;
60700;SDS011;46541;49.894;10.886;2023-05-20T07:26:31;9.45;;;7.57;;
60700;SDS011;46541;49.894;10.886;2023-05-20T07:29:02;7.75;;;6.95;;
60700;SDS011;46541;49.894;10.886;2023-05-20T07:31:29;8.75;;;7.35;;
60700;SDS011;46541;49.894;10.886;2023-05-20T07:33:56;9.50;;;7.20;;
60700;SDS011;46541;49.894;10.886;2023-05-20T07:36:27;11.65;;;7.70;;
60700;SDS011;46541;49.894;10.886;2023-05-20T07:38:54;13.18;;;8.55;;
60700;SDS011;46541;49.894;10.886;2023-05-20T07:41:29;11.57;;;7.17;;
60700;SDS011;46541;49.894;10.886;2023-05-20T07:43:56;9.25;;;7.50;;
60700;SDS011;46541;49.894;10.886;2023-05-20T07:46:23;7.07;;;6.38;;
60700;SDS011;46541;49.894;10.886;2023-05-20T07:48:49;8.30;;;7.20;;
60700;SDS011;46541;49.894;10.886;2023-05-20T07:51:16;9.10;;;6.72;;
60700;SDS011;46541;49.894;10.886;2023-05-20T07:53:44;9.68;;;8.07;;
60700;SDS011;46541;49.894;10.886;2023-05-20T07:56:10;8.73;;;7.00;;
60700;SDS011;46541;49.894;10.886;2023-05-20T07:58:39;10.35;;;7.95;;
60700;SDS011;46541;49.894;10.886;2023-05-20T08:01:06;10.93;;;7.32;;
60700;SDS011;46541;49.894;10.886;2023-05-20T08:03:34;10.63;;;7.57;;
60700;SDS011;46541;49.894;10.886;2023-05-20T08:06:02;10.23;;;7.88;;
60700;SDS011;46541;49.894;10.886;2023-05-20T08:08:28;11.32;;;7.25;;
60700;SDS011;46541;49.894;10.886;2023-05-20T08:10:55;12.00;;;7.15;;
60700;SDS011;46541;49.894;10.886;2023-05-20T08:13:22;8.18;;;7.30;;
60700;SDS011;46541;49.894;10.886;2023-05-20T08:15:51;9.35;;;7.13;;
60700;SDS011;46541;49.894;10.886;2023-05-20T08:18:21;14.52;;;8.48;;
60700;SDS011;46541;49.894;10.886;2023-05-20T08:20:48;9.10;;;7.28;;
60700;SDS011;46541;49.894;10.886;2023-05-20T08:23:15;13.30;;;8.98;;
60700;SDS011;46541;49.894;10.886;2023-05-20T08:25:42;9.35;;;8.32;;
60700;SDS011;46541;49.894;10.886;2023-05-20T08:28:11;11.82;;;8.13;;
60700;SDS011;46541;49.894;10.886;2023-05-20T08:30:38;15.38;;;11.43;;
60700;SDS011;46541;49.894;10.886;2023-05-20T08:33:05;10.15;;;7.55;;
60700;SDS011;46541;49.894;10.886;2023-05-20T08:35:32;12.57;;;9.02;;
60700;SDS011;46541;49.894;10.886;2023-05-20T08:37:59;10.05;;;7.00;;
60700;SDS011;46541;49.894;10.886;2023-05-20T08:40:27;12.30;;;7.63;;
60700;SDS011;46541;49.894;10.886;2023-05-20T08:42:53;9.75;;;6.55;;
60700;SDS011;46541;49.894;10.886;2023-05-20T08:45:21;12.18;;;7.50;;
60700;SDS011;46541;49.894;10.886;2023-05-20T08:47:53;12.77;;;7.43;;
60700;SDS011;46541;49.894;10.886;2023-05-20T08:50:20;9.70;;;7.35;;
60700;SDS011;46541;49.894;10.886;2023-05-20T08:52:47;10.50;;;7.47;;
60700;SDS011;46541;49.894;10.886;2023-05-20T08:55:16;10.38;;;8.40;;
60700;SDS011;46541;49.894;10.886;2023-05-20T08:58:03;10.73;;;7.63;;
60700;SDS011;46541;49.894;10.886;2023-05-20T09:00:30;10.27;;;8.43;;
60700;SDS011;46541;49.894;10.886;2023-05-20T09:02:57;9.70;;;7.85;;
60700;SDS011;46541;49.894;10.886;2023-05-20T09:05:26;11.52;;;7.20;;
60700;SDS011;46541;49.894;10.886;2023-05-20T09:08:03;15.88;;;11.88;;
60700;SDS011;46541;49.894;10.886;2023-05-20T09:10:32;12.75;;;7.60;;
60700;SDS011;46541;49.894;10.886;2023-05-20T09:13:00;13.55;;;9.80;;
60700;SDS011;46541;49.894;10.886;2023-05-20T09:15:30;11.13;;;8.48;;
60700;SDS011;46541;49.894;10.886;2023-05-20T09:18:02;9.65;;;7.80;;
60700;SDS011;46541;49.894;10.886;2023-05-20T09:20:32;9.55;;;7.75;;
60700;SDS011;46541;49.894;10.886;2023-05-20T09:23:00;8.75;;;7.22;;
60700;SDS011;46541;49.894;10.886;2023-05-20T09:25:28;9.20;;;7.68;;
60700;SDS011;46541;49.894;10.886;2023-05-20T09:27:55;12.30;;;8.57;;
60700;SDS011;46541;49.894;10.886;2023-05-20T09:30:22;12.80;;;8.38;;
60700;SDS011;46541;49.894;10.886;2023-05-20T09:32:56;9.77;;;7.18;;
60700;SDS011;46541;49.894;10.886;2023-05-20T09:35:24;14.15;;;9.02;;
60700;SDS011;46541;49.894;10.886;2023-05-20T09:37:53;9.63;;;7.50;;
60700;SDS011;46541;49.894;10.886;2023-05-20T09:40:25;12.00;;;8.10;;
60700;SDS011;46541;49.894;10.886;2023-05-20T09:42:55;10.88;;;8.15;;
60700;SDS011;46541;49.894;10.886;2023-05-20T09:45:24;20.27;;;10.18;;
60700;SDS011;46541;49.894;10.886;2023-05-20T09:47:52;8.43;;;6.32;;
60700;SDS011;46541;49.894;10.886;2023-05-20T09:50:20;10.68;;;8.05;;
60700;SDS011;46541;49.894;10.886;2023-05-20T09:52:48;11.10;;;7.93;;
60700;SDS011;46541;49.894;10.886;2023-05-20T09:55:18;10.07;;;7.70;;
60700;SDS011;46541;49.894;10.886;2023-05-20T09:57:46;9.02;;;7.20;;
60700;SDS011;46541;49.894;10.886;2023-05-20T10:00:13;12.13;;;7.85;;
60700;SDS011;46541;49.894;10.886;2023-05-20T10:02:49;12.57;;;7.57;;
60700;SDS011;46541;49.894;10.886;2023-05-20T10:05:21;8.68;;;7.32;;
60700;SDS011;46541;49.894;10.886;2023-05-20T10:21:31;8.45;;;7.28;;
60700;SDS011;46541;49.894;10.886;2023-05-20T10:24:08;10.10;;;7.32;;
60700;SDS011;46541;49.894;10.886;2023-05-20T10:26:36;13.15;;;8.00;;
60700;SDS011;46541;49.894;10.886;2023-05-20T10:29:16;9.45;;;7.63;;
60700;SDS011;46541;49.894;10.886;2023-05-20T10:31:44;10.52;;;7.35;;
60700;SDS011;46541;49.894;10.886;2023-05-20T10:34:15;9.25;;;8.18;;
60700;SDS011;46541;49.894;10.886;2023-05-20T10:36:46;13.38;;;9.18;;
60700;SDS011;46541;49.894;10.886;2023-05-20T10:39:27;47.08;;;28.30;;
60700;SDS011;46541;49.894;10.886;2023-05-20T10:42:04;8.80;;;7.82;;
60700;SDS011;46541;49.894;10.886;2023-05-20T10:44:45;16.90;;;11.88;;
60700;SDS011;46541;49.894;10.886;2023-05-20T10:47:13;9.05;;;7.15;;
60700;SDS011;46541;49.894;10.886;2023-05-20T10:49:45;10.32;;;7.63;;
60700;SDS011;46541;49.894;10.886;2023-05-20T10:52:13;9.55;;;8.38;;
60700;SDS011;46541;49.894;10.886;2023-05-20T10:54:45;10.52;;;7.53;;
60700;SDS011;46541;49.894;10.886;2023-05-20T10:57:16;24.98;;;14.48;;
60700;SDS011;46541;49.894;10.886;2023-05-20T10:59:43;9.80;;;7.75;;
60700;SDS011;46541;49.894;10.886;2023-05-20T11:02:14;10.95;;;8.13;;
60700;SDS011;46541;49.894;10.886;2023-05-20T11:04:44;11.48;;;7.40;;
60700;SDS011;46541;49.894;10.886;2023-05-20T11:07:12;10.25;;;7.65;;
60700;SDS011;46541;49.894;10.886;2023-05-20T11:09:49;9.20;;;7.63;;
60700;SDS011;46541;49.894;10.886;2023-05-20T11:12:16;9.85;;;7.85;;
60700;SDS011;46541;49.894;10.886;2023-05-20T11:14:43;17.90;;;8.73;;
60700;SDS011;46541;49.894;10.886;2023-05-20T11:17:09;11.55;;;7.88;;
60700;SDS011;46541;49.894;10.886;2023-05-20T11:19:36;9.90;;;7.72;;
60700;SDS011;46541;49.894;10.886;2023-05-20T11:22:05;9.77;;;7.30;;
60700;SDS011;46541;49.894;10.886;2023-05-20T11:24:33;8.60;;;7.05;;
60700;SDS011;46541;49.894;10.886;2023-05-20T11:27:00;9.95;;;7.20;;
60700;SDS011;46541;49.894;10.886;2023-05-20T11:29:27;10.65;;;7.47;;
60700;SDS011;46541;49.894;10.886;2023-05-20T11:31:58;11.00;;;6.72;;
60700;SDS011;46541;49.894;10.886;2023-05-20T11:34:25;8.93;;;6.78;;
60700;SDS011;46541;49.894;10.886;2023-05-20T11:37:05;9.68;;;7.45;;
60700;SDS011;46541;49.894;10.886;2023-05-20T11:39:34;8.07;;;7.05;;
60700;SDS011;46541;49.894;10.886;2023-05-20T11:42:00;7.22;;;5.97;;
60700;SDS011;46541;49.894;10.886;2023-05-20T11:44:28;7.85;;;5.97;;
60700;SDS011;46541;49.894;10.886;2023-05-20T11:46:59;7.68;;;6.25;;
60700;SDS011;46541;49.894;10.886;2023-05-20T11:49:27;8.00;;;7.13;;
60700;SDS011;46541;49.894;10.886;2023-05-20T11:51:54;9.93;;;7.13;;
60700;SDS011;46541;49.894;10.886;2023-05-20T11:54:22;7.97;;;7.00;;
60700;SDS011;46541;49.894;10.886;2023-05-20T11:56:49;12.18;;;6.03;;
60700;SDS011;46541;49.894;10.886;2023-05-20T11:59:16;7.85;;;6.55;;
60700;SDS011;46541;49.894;10.886;2023-05-20T12:01:43;8.70;;;6.95;;
60700;SDS011;46541;49.894;10.886;2023-05-20T12:04:11;7.60;;;6.20;;
60700;SDS011;46541;49.894;10.886;2023-05-20T12:06:41;9.30;;;6.47;;
60700;SDS011;46541;49.894;10.886;2023-05-20T12:09:09;6.90;;;6.20;;
60700;SDS011;46541;49.894;10.886;2023-05-20T12:11:36;7.60;;;6.13;;
60700;SDS011;46541;49.894;10.886;2023-05-20T12:14:07;8.02;;;6.03;;
60700;SDS011;46541;49.894;10.886;2023-05-20T12:16:35;9.77;;;6.32;;
60700;SDS011;46541;49.894;10.886;2023-05-20T12:19:02;8.45;;;6.32;;
60700;SDS011;46541;49.894;10.886;2023-05-20T12:21:30;7.53;;;6.40;;
60700;SDS011;46541;49.894;10.886;2023-05-20T12:24:00;9.18;;;6.75;;
60700;SDS011;46541;49.894;10.886;2023-05-20T12:26:27;8.45;;;7.10;;
60700;SDS011;46541;49.894;10.886;2023-05-20T12:28:55;8.35;;;7.22;;
60700;SDS011;46541;49.894;10.886;2023-05-20T12:31:23;8.90;;;7.13;;
60700;SDS011;46541;49.894;10.886;2023-05-20T12:33:50;8.05;;;6.78;;
60700;SDS011;46541;49.894;10.886;2023-05-20T12:36:17;7.03;;;6.32;;
60700;SDS011;46541;49.894;10.886;2023-05-20T12:38:44;8.88;;;7.15;;
60700;SDS011;46541;49.894;10.886;2023-05-20T12:41:11;8.88;;;6.70;;
60700;SDS011;46541;49.894;10.886;2023-05-20T12:43:38;8.02;;;6.43;;
60700;SDS011;46541;49.894;10.886;2023-05-20T12:46:05;11.70;;;6.85;;
60700;SDS011;46541;49.894;10.886;2023-05-20T12:48:32;7.13;;;6.43;;
60700;SDS011;46541;49.894;10.886;2023-05-20T12:50:59;7.95;;;5.35;;
60700;SDS011;46541;49.894;10.886;2023-05-20T12:53:26;8.00;;;5.72;;
60700;SDS011;46541;49.894;10.886;2023-05-20T12:55:52;6.85;;;5.65;;
60700;SDS011;46541;49.894;10.886;2023-05-20T12:58:19;7.63;;;6.15;;
60700;SDS011;46541;49.894;10.886;2023-05-20T13:00:46;7.13;;;5.32;;
60700;SDS011;46541;49.894;10.886;2023-05-20T13:03:13;8.27;;;6.47;;
60700;SDS011;46541;49.894;10.886;2023-05-20T13:05:40;6.78;;;6.03;;
60700;SDS011;46541;49.894;10.886;2023-05-20T13:08:07;9.70;;;5.97;;
60700;SDS011;46541;49.894;10.886;2023-05-20T13:10:35;9.00;;;6.22;;
60700;SDS011;46541;49.894;10.886;2023-05-20T13:13:02;8.50;;;5.97;;
60700;SDS011;46541;49.894;10.886;2023-05-20T13:15:29;6.78;;;5.75;;
60700;SDS011;46541;49.894;10.886;2023-05-20T13:17:58;7.90;;;5.63;;
60700;SDS011;46541;49.894;10.886;2023-05-20T13:20:26;6.10;;;5.50;;
60700;SDS011;46541;49.894;10.886;2023-05-20T13:22:54;8.35;;;5.93;;
60700;SDS011;46541;49.894;10.886;2023-05-20T13:25:21;8.00;;;6.07;;
60700;SDS011;46541;49.894;10.886;2023-05-20T13:27:48;8.05;;;6.38;;
60700;SDS011;46541;49.894;10.886;2023-05-20T13:30:14;8.90;;;6.38;;
60700;SDS011;46541;49.894;10.886;2023-05-20T13:32:41;6.43;;;5.65;;
60700;SDS011;46541;49.894;10.886;2023-05-20T13:35:08;9.93;;;5.35;;
60700;SDS011;46541;49.894;10.886;2023-05-20T13:37:35;7.13;;;5.80;;
60700;SDS011;46541;49.894;10.886;2023-05-20T13:40:02;14.88;;;9.40;;
60700;SDS011;46541;49.894;10.886;2023-05-20T13:42:28;8.23;;;6.40;;
60700;SDS011;46541;49.894;10.886;2023-05-20T13:44:55;9.52;;;5.95;;
60700;SDS011;46541;49.894;10.886;2023-05-20T13:47:22;6.80;;;6.10;;
60700;SDS011;46541;49.894;10.886;2023-05-20T13:49:49;7.45;;;6.03;;
60700;SDS011;46541;49.894;10.886;2023-05-20T13:52:15;8.13;;;6.00;;
60700;SDS011;46541;49.894;10.886;2023-05-20T13:54:42;10.45;;;6.50;;
60700;SDS011;46541;49.894;10.886;2023-05-20T13:57:11;7.82;;;6.10;;
60700;SDS011;46541;49.894;10.886;2023-05-20T13:59:38;7.80;;;5.68;;
60700;SDS011;46541;49.894;10.886;2023-05-20T14:02:05;10.82;;;6.38;;
60700;SDS011;46541;49.894;10.886;2023-05-20T14:04:33;8.55;;;7.28;;
60700;SDS011;46541;49.894;10.886;2023-05-20T14:07:09;7.50;;;6.40;;
60700;SDS011;46541;49.894;10.886;2023-05-20T14:09:36;7.00;;;6.20;;
60700;SDS011;46541;49.894;10.886;2023-05-20T14:12:03;8.05;;;6.28;;
60700;SDS011;46541;49.894;10.886;2023-05-20T14:14:31;7.28;;;5.70;;
60700;SDS011;46541;49.894;10.886;2023-05-20T14:16:58;6.55;;;5.75;;
60700;SDS011;46541;49.894;10.886;2023-05-20T14:19:25;7.43;;;6.47;;
60700;SDS011;46541;49.894;10.886;2023-05-20T14:21:52;7.30;;;5.85;;
60700;SDS011;46541;49.894;10.886;2023-05-20T14:24:19;8.48;;;6.20;;
60700;SDS011;46541;49.894;10.886;2023-05-20T14:26:48;5.95;;;5.30;;
60700;SDS011;46541;49.894;10.886;2023-05-20T14:29:15;8.70;;;6.93;;
60700;SDS011;46541;49.894;10.886;2023-05-20T14:31:42;8.77;;;6.55;;
60700;SDS011;46541;49.894;10.886;2023-05-20T14:34:09;10.00;;;6.85;;
60700;SDS011;46541;49.894;10.886;2023-05-20T14:36:36;9.45;;;7.07;;
60700;SDS011;46541;49.894;10.886;2023-05-20T14:39:03;7.30;;;6.10;;
60700;SDS011;46541;49.894;10.886;2023-05-20T14:41:30;6.20;;;5.60;;
60700;SDS011;46541;49.894;10.886;2023-05-20T14:43:57;8.98;;;6.18;;
60700;SDS011;46541;49.894;10.886;2023-05-20T14:46:23;9.80;;;6.43;;
60700;SDS011;46541;49.894;10.886;2023-05-20T14:48:50;7.97;;;6.10;;